sensor_id;sensor_type;location;lat;lon;timestamp;pressure;altitude;pressure_sealevel;temperature;humidity
14885;BME280;7534;50.762;7.000;2023-01-29T00:00:08;89227.03;;;-143.16;68.60
14885;BME280;7534;50.762;7.000;2023-01-29T00:02:37;89162.41;;;-143.16;68.47
14885;BME280;7534;50.762;7.000;2023-01-29T00:05:05;89186.66;;;-143.16;68.60
14885;BME280;7534;50.762;7.000;2023-01-29T00:07:31;89168.47;;;-143.16;68.54
14885;BME280;7534;50.762;7.000;2023-01-29T00:09:57;89233.09;;;-143.16;68.54
14885;BME280;7534;50.762;7.000;2023-01-29T00:12:22;89208.88;;;-143.16;68.64
14885;BME280;7534;50.762;7.000;2023-01-29T00:14:48;89138.19;;;-143.16;68.55
14885;BME280;7534;50.762;7.000;2023-01-29T00:17:14;89160.41;;;-143.16;68.60
14885;BME280;7534;50.762;7.000;2023-01-29T00:19:40;89122.03;;;-143.16;68.40
14885;BME280;7534;50.762;7.000;2023-01-29T00:22:06;89602.63;;;-143.16;68.58
14885;BME280;7534;50.762;7.000;2023-01-29T00:24:32;89150.31;;;-143.16;68.30
14885;BME280;7534;50.762;7.000;2023-01-29T00:26:57;89122.03;;;-143.16;68.75
14885;BME280;7534;50.762;7.000;2023-01-29T00:29:23;89505.69;;;-143.16;68.95
14885;BME280;7534;50.762;7.000;2023-01-29T00:31:49;89208.88;;;-143.16;68.86
14885;BME280;7534;50.762;7.000;2023-01-29T00:34:14;89225.00;;;-143.16;69.01
14885;BME280;7534;50.762;7.000;2023-01-29T00:36:40;89235.09;;;-143.16;68.90
14885;BME280;7534;50.762;7.000;2023-01-29T00:39:08;89220.97;;;-143.16;68.94
14885;BME280;7534;50.762;7.000;2023-01-29T00:41:37;89227.03;;;-143.16;68.82
14885;BME280;7534;50.762;7.000;2023-01-29T00:44:21;89225.00;;;-143.16;68.82
14885;BME280;7534;50.762;7.000;2023-01-29T00:47:06;89196.75;;;-143.16;68.72
14885;BME280;7534;50.762;7.000;2023-01-29T00:49:55;89239.16;;;-143.16;68.64
14885;BME280;7534;50.762;7.000;2023-01-29T00:52:22;89253.28;;;-143.16;68.91
14885;BME280;7534;50.762;7.000;2023-01-29T00:54:48;89231.06;;;-143.16;69.28
14885;BME280;7534;50.762;7.000;2023-01-29T00:57:14;89158.38;;;-143.16;69.62
14885;BME280;7534;50.762;7.000;2023-01-29T00:59:39;89049.34;;;-143.16;69.43
14885;BME280;7534;50.762;7.000;2023-01-29T01:02:05;89225.00;;;-143.16;69.49
14885;BME280;7534;50.762;7.000;2023-01-29T01:04:49;89208.88;;;-143.16;69.53
14885;BME280;7534;50.762;7.000;2023-01-29T01:07:15;89184.63;;;-143.16;69.82
14885;BME280;7534;50.762;7.000;2023-01-29T01:09:41;89303.78;;;-143.16;69.89
14885;BME280;7534;50.762;7.000;2023-01-29T01:12:25;89291.66;;;-143.16;69.86
14885;BME280;7534;50.762;7.000;2023-01-29T01:14:50;89196.75;;;-143.16;70.28
14885;BME280;7534;50.762;7.000;2023-01-29T01:17:16;89261.34;;;-143.16;70.44
14885;BME280;7534;50.762;7.000;2023-01-29T01:19:42;89148.28;;;-143.16;70.51
14885;BME280;7534;50.762;7.000;2023-01-29T01:22:08;88960.50;;;-143.16;70.75
14885;BME280;7534;50.762;7.000;2023-01-29T01:24:33;89059.44;;;-143.16;70.57
14885;BME280;7534;50.762;7.000;2023-01-29T01:26:59;89289.63;;;-143.16;70.74
14885;BME280;7534;50.762;7.000;2023-01-29T01:29:24;89124.06;;;-143.16;71.15
14885;BME280;7534;50.762;7.000;2023-01-29T01:31:52;89285.59;;;-143.16;71.36
14885;BME280;7534;50.762;7.000;2023-01-29T01:34:19;89283.56;;;-143.16;71.33
14885;BME280;7534;50.762;7.000;2023-01-29T01:36:45;89309.81;;;-143.16;71.59
14885;BME280;7534;50.762;7.000;2023-01-29T01:39:10;89608.69;;;-143.16;71.51
14885;BME280;7534;50.762;7.000;2023-01-29T01:41:36;89223.00;;;-143.16;72.08
14885;BME280;7534;50.762;7.000;2023-01-29T01:44:03;89249.25;;;-143.16;72.35
14885;BME280;7534;50.762;7.000;2023-01-29T01:46:31;89283.56;;;-143.16;72.25
14885;BME280;7534;50.762;7.000;2023-01-29T01:49:18;89200.78;;;-143.16;72.46
14885;BME280;7534;50.762;7.000;2023-01-29T01:51:49;89315.88;;;-143.16;72.38
14885;BME280;7534;50.762;7.000;2023-01-29T01:54:29;89253.28;;;-143.16;72.43
14885;BME280;7534;50.762;7.000;2023-01-29T01:57:06;89307.81;;;-143.16;72.83
14885;BME280;7534;50.762;7.000;2023-01-29T01:59:47;89315.88;;;-143.16;72.57
14885;BME280;7534;50.762;7.000;2023-01-29T02:02:19;89229.06;;;-143.16;73.26
14885;BME280;7534;50.762;7.000;2023-01-29T02:05:03;89275.50;;;-143.16;73.27
14885;BME280;7534;50.762;7.000;2023-01-29T02:07:49;89263.38;;;-143.16;73.47
14885;BME280;7534;50.762;7.000;2023-01-29T02:10:42;89257.31;;;-143.16;72.85
14885;BME280;7534;50.762;7.000;2023-01-29T02:13:08;89275.50;;;-143.16;73.25
14885;BME280;7534;50.762;7.000;2023-01-29T02:15:35;89287.63;;;-143.16;73.05
14885;BME280;7534;50.762;7.000;2023-01-29T02:18:01;89247.22;;;-143.16;73.38
14885;BME280;7534;50.762;7.000;2023-01-29T02:20:29;89113.97;;;-143.16;73.28
14885;BME280;7534;50.762;7.000;2023-01-29T02:26:25;89237.13;;;-143.16;73.37
14885;BME280;7534;50.762;7.000;2023-01-29T02:29:09;89118.00;;;-143.16;73.47
14885;BME280;7534;50.762;7.000;2023-01-29T02:34:51;89323.97;;;-143.16;73.57
14885;BME280;7534;50.762;7.000;2023-01-29T02:37:53;89287.63;;;-143.16;74.11
14885;BME280;7534;50.762;7.000;2023-01-29T02:40:33;89295.69;;;-143.16;73.68
14885;BME280;7534;50.762;7.000;2023-01-29T02:43:27;89321.94;;;-143.16;73.76
14885;BME280;7534;50.762;7.000;2023-01-29T02:46:10;89332.03;;;-143.16;73.88
14885;BME280;7534;50.762;7.000;2023-01-29T02:48:54;89602.63;;;-143.16;73.82
14885;BME280;7534;50.762;7.000;2023-01-29T02:54:16;89319.91;;;-143.16;73.66
14885;BME280;7534;50.762;7.000;2023-01-29T02:56:57;89336.06;;;-143.16;73.81
14885;BME280;7534;50.762;7.000;2023-01-29T02:59:41;89287.63;;;-143.16;73.96
14885;BME280;7534;50.762;7.000;2023-01-29T03:02:14;89267.41;;;-143.16;74.07
14885;BME280;7534;50.762;7.000;2023-01-29T03:04:56;89178.56;;;-143.16;74.08
14885;BME280;7534;50.762;7.000;2023-01-29T03:07:30;89259.34;;;-143.16;74.10
14885;BME280;7534;50.762;7.000;2023-01-29T03:10:17;89263.38;;;-143.16;74.27
14885;BME280;7534;50.762;7.000;2023-01-29T03:12:58;89261.34;;;-143.16;74.50
14885;BME280;7534;50.762;7.000;2023-01-29T03:15:32;89004.91;;;-143.16;74.30
14885;BME280;7534;50.762;7.000;2023-01-29T03:18:14;89162.41;;;-143.16;73.96
14885;BME280;7534;50.762;7.000;2023-01-29T03:20:46;89315.88;;;-143.16;74.42
14885;BME280;7534;50.762;7.000;2023-01-29T03:23:25;89315.88;;;-143.16;74.70
14885;BME280;7534;50.762;7.000;2023-01-29T03:26:15;89273.47;;;-143.16;75.07
14885;BME280;7534;50.762;7.000;2023-01-29T03:29:04;89291.66;;;-143.16;74.83
14885;BME280;7534;50.762;7.000;2023-01-29T03:31:52;89449.16;;;-143.16;75.34
14885;BME280;7534;50.762;7.000;2023-01-29T03:34:41;89340.13;;;-143.16;75.00
14885;BME280;7534;50.762;7.000;2023-01-29T03:37:44;89313.88;;;-143.16;75.41
14885;BME280;7534;50.762;7.000;2023-01-29T03:40:12;89338.09;;;-143.16;75.36
14885;BME280;7534;50.762;7.000;2023-01-29T03:43:13;89150.31;;;-143.16;75.53
14885;BME280;7534;50.762;7.000;2023-01-29T03:46:06;89293.66;;;-143.16;75.33
14885;BME280;7534;50.762;7.000;2023-01-29T03:49:02;89259.34;;;-143.16;75.17
14885;BME280;7534;50.762;7.000;2023-01-29T03:51:50;89323.97;;;-143.16;75.42
14885;BME280;7534;50.762;7.000;2023-01-29T03:54:31;89317.91;;;-143.16;76.08
14885;BME280;7534;50.762;7.000;2023-01-29T03:57:23;89287.63;;;-143.16;75.95
14885;BME280;7534;50.762;7.000;2023-01-29T04:02:50;89178.56;;;-143.16;75.95
14885;BME280;7534;50.762;7.000;2023-01-29T04:05:24;89350.22;;;-143.16;76.14
14885;BME280;7534;50.762;7.000;2023-01-29T04:08:03;89255.31;;;-143.16;75.72
14885;BME280;7534;50.762;7.000;2023-01-29T04:10:34;89257.31;;;-143.16;75.71
14885;BME280;7534;50.762;7.000;2023-01-29T04:13:08;89216.94;;;-143.16;75.82
14885;BME280;7534;50.762;7.000;2023-01-29T04:16:03;89259.34;;;-143.16;75.43
14885;BME280;7534;50.762;7.000;2023-01-29T04:18:27;89610.72;;;-143.16;75.29
14885;BME280;7534;50.762;7.000;2023-01-29T04:20:54;89220.97;;;-143.16;75.54
14885;BME280;7534;50.762;7.000;2023-01-29T04:23:26;89354.25;;;-143.16;75.09
14885;BME280;7534;50.762;7.000;2023-01-29T04:29:28;89317.91;;;-143.16;75.06
14885;BME280;7534;50.762;7.000;2023-01-29T04:32:15;89283.56;;;-143.16;75.23
14885;BME280;7534;50.762;7.000;2023-01-29T04:37:55;89251.25;;;-143.16;75.07
14885;BME280;7534;50.762;7.000;2023-01-29T04:43:40;89295.69;;;-143.16;75.67
14885;BME280;7534;50.762;7.000;2023-01-29T04:46:21;89336.06;;;-143.16;75.59
14885;BME280;7534;50.762;7.000;2023-01-29T04:49:26;89338.09;;;-143.16;76.08
14885;BME280;7534;50.762;7.000;2023-01-29T04:52:07;89364.34;;;-143.16;75.86
14885;BME280;7534;50.762;7.000;2023-01-29T04:55:03;89319.91;;;-143.16;75.64
14885;BME280;7534;50.762;7.000;2023-01-29T05:00:42;89352.22;;;-143.16;75.77
14885;BME280;7534;50.762;7.000;2023-01-29T05:03:11;89273.47;;;-143.16;75.45
14885;BME280;7534;50.762;7.000;2023-01-29T05:05:41;89142.22;;;-143.16;75.44
14885;BME280;7534;50.762;7.000;2023-01-29T05:08:13;89325.97;;;-143.16;75.02
14885;BME280;7534;50.762;7.000;2023-01-29T05:10:40;89356.28;;;-143.16;75.13
14885;BME280;7534;50.762;7.000;2023-01-29T05:13:12;89271.47;;;-143.16;75.51
14885;BME280;7534;50.762;7.000;2023-01-29T05:15:52;89299.72;;;-143.16;75.72
14885;BME280;7534;50.762;7.000;2023-01-29T05:18:19;89325.97;;;-143.16;75.50
14885;BME280;7534;50.762;7.000;2023-01-29T05:20:46;89237.13;;;-143.16;75.63
14885;BME280;7534;50.762;7.000;2023-01-29T05:23:19;89356.28;;;-143.16;76.09
14885;BME280;7534;50.762;7.000;2023-01-29T05:25:46;89138.19;;;-143.16;75.89
14885;BME280;7534;50.762;7.000;2023-01-29T05:28:13;89354.25;;;-143.16;75.39
14885;BME280;7534;50.762;7.000;2023-01-29T05:30:47;89317.91;;;-143.16;75.46
14885;BME280;7534;50.762;7.000;2023-01-29T05:33:30;89257.31;;;-143.16;75.40
14885;BME280;7534;50.762;7.000;2023-01-29T05:35:58;89287.63;;;-143.16;75.33
14885;BME280;7534;50.762;7.000;2023-01-29T05:38:24;89319.91;;;-143.16;75.12
14885;BME280;7534;50.762;7.000;2023-01-29T05:40:50;89338.09;;;-143.16;75.16
14885;BME280;7534;50.762;7.000;2023-01-29T05:43:24;89334.06;;;-143.16;74.39
14885;BME280;7534;50.762;7.000;2023-01-29T05:45:58;89295.69;;;-143.16;74.72
14885;BME280;7534;50.762;7.000;2023-01-29T05:48:28;89233.09;;;-143.16;74.70
14885;BME280;7534;50.762;7.000;2023-01-29T05:53:22;89313.88;;;-143.16;74.60
14885;BME280;7534;50.762;7.000;2023-01-29T05:55:48;89313.88;;;-143.16;74.25
14885;BME280;7534;50.762;7.000;2023-01-29T05:58:14;89313.88;;;-143.16;74.54
14885;BME280;7534;50.762;7.000;2023-01-29T06:00:40;89287.63;;;-143.16;74.39
14885;BME280;7534;50.762;7.000;2023-01-29T06:03:06;89229.06;;;-143.16;74.35
14885;BME280;7534;50.762;7.000;2023-01-29T06:05:32;89315.88;;;-143.16;74.22
14885;BME280;7534;50.762;7.000;2023-01-29T06:07:58;89323.97;;;-143.16;74.24
14885;BME280;7534;50.762;7.000;2023-01-29T06:10:23;89416.84;;;-143.16;74.31
14885;BME280;7534;50.762;7.000;2023-01-29T06:12:49;89293.66;;;-143.16;73.94
14885;BME280;7534;50.762;7.000;2023-01-29T06:15:15;89336.06;;;-143.16;73.82
14885;BME280;7534;50.762;7.000;2023-01-29T06:17:41;89338.09;;;-143.16;73.63
14885;BME280;7534;50.762;7.000;2023-01-29T06:20:08;89305.78;;;-143.16;74.10
14885;BME280;7534;50.762;7.000;2023-01-29T06:22:33;89336.06;;;-143.16;73.85
14885;BME280;7534;50.762;7.000;2023-01-29T06:24:59;89338.09;;;-143.16;73.45
14885;BME280;7534;50.762;7.000;2023-01-29T06:27:25;89352.22;;;-143.16;74.40
14885;BME280;7534;50.762;7.000;2023-01-29T06:29:50;89297.72;;;-143.16;74.40
14885;BME280;7534;50.762;7.000;2023-01-29T06:32:16;89334.06;;;-143.16;74.17
14885;BME280;7534;50.762;7.000;2023-01-29T06:34:42;89328.00;;;-143.16;74.31
14885;BME280;7534;50.762;7.000;2023-01-29T06:37:07;89323.97;;;-143.16;74.16
14885;BME280;7534;50.762;7.000;2023-01-29T06:39:33;89323.97;;;-143.16;73.81
14885;BME280;7534;50.762;7.000;2023-01-29T06:41:59;89374.44;;;-143.16;74.10
14885;BME280;7534;50.762;7.000;2023-01-29T06:44:25;89202.81;;;-143.16;73.88
14885;BME280;7534;50.762;7.000;2023-01-29T06:46:51;89384.53;;;-143.16;73.57
14885;BME280;7534;50.762;7.000;2023-01-29T06:49:16;89368.38;;;-143.16;73.95
14885;BME280;7534;50.762;7.000;2023-01-29T06:51:42;89388.56;;;-143.16;73.49
14885;BME280;7534;50.762;7.000;2023-01-29T06:54:09;89315.88;;;-143.16;73.99
14885;BME280;7534;50.762;7.000;2023-01-29T06:56:35;89348.19;;;-143.16;73.82
14885;BME280;7534;50.762;7.000;2023-01-29T06:59:01;89319.91;;;-143.16;73.71
14885;BME280;7534;50.762;7.000;2023-01-29T07:01:27;89325.97;;;-143.16;74.02
14885;BME280;7534;50.762;7.000;2023-01-29T07:03:52;89328.00;;;-143.16;74.07
14885;BME280;7534;50.762;7.000;2023-01-29T07:06:18;89332.03;;;-143.16;74.28
14885;BME280;7534;50.762;7.000;2023-01-29T07:08:44;89336.06;;;-143.16;74.48
14885;BME280;7534;50.762;7.000;2023-01-29T07:11:11;89352.22;;;-143.16;74.82
14885;BME280;7534;50.762;7.000;2023-01-29T07:13:37;89346.16;;;-143.16;74.77
14885;BME280;7534;50.762;7.000;2023-01-29T07:16:04;89370.41;;;-143.16;74.37
14885;BME280;7534;50.762;7.000;2023-01-29T07:18:31;89338.09;;;-143.16;74.52
14885;BME280;7534;50.762;7.000;2023-01-29T07:20:57;89352.22;;;-143.16;74.20
14885;BME280;7534;50.762;7.000;2023-01-29T07:23:23;89267.41;;;-143.16;74.34
14885;BME280;7534;50.762;7.000;2023-01-29T07:25:49;89315.88;;;-143.16;74.34
14885;BME280;7534;50.762;7.000;2023-01-29T07:28:17;89307.81;;;-143.16;74.39
14885;BME280;7534;50.762;7.000;2023-01-29T07:30:43;89305.78;;;-143.16;74.75
14885;BME280;7534;50.762;7.000;2023-01-29T07:33:10;89305.78;;;-143.16;74.86
14885;BME280;7534;50.762;7.000;2023-01-29T07:35:39;89295.69;;;-143.16;74.48
14885;BME280;7534;50.762;7.000;2023-01-29T07:38:07;89275.50;;;-143.16;74.39
14885;BME280;7534;50.762;7.000;2023-01-29T07:40:33;89259.34;;;-143.16;74.93
14885;BME280;7534;50.762;7.000;2023-01-29T07:43:00;89289.63;;;-143.16;75.21
14885;BME280;7534;50.762;7.000;2023-01-29T07:45:28;89289.63;;;-143.16;74.96
14885;BME280;7534;50.762;7.000;2023-01-29T07:47:55;89218.97;;;-143.16;74.84
14885;BME280;7534;50.762;7.000;2023-01-29T07:50:22;89235.09;;;-143.16;74.53
14885;BME280;7534;50.762;7.000;2023-01-29T07:52:49;89239.16;;;-143.16;74.55
14885;BME280;7534;50.762;7.000;2023-01-29T07:55:14;89233.09;;;-143.16;74.11
14885;BME280;7534;50.762;7.000;2023-01-29T07:57:40;89214.91;;;-143.16;73.99
14885;BME280;7534;50.762;7.000;2023-01-29T08:00:07;89182.59;;;-143.16;73.66
14885;BME280;7534;50.762;7.000;2023-01-29T08:02:32;89182.59;;;-143.16;73.48
14885;BME280;7534;50.762;7.000;2023-01-29T08:04:58;89198.75;;;-143.16;73.42
14885;BME280;7534;50.762;7.000;2023-01-29T08:07:24;89271.47;;;-143.16;73.45
14885;BME280;7534;50.762;7.000;2023-01-29T08:09:49;89162.41;;;-143.16;72.86
14885;BME280;7534;50.762;7.000;2023-01-29T08:12:15;89162.41;;;-143.16;72.84
14885;BME280;7534;50.762;7.000;2023-01-29T08:14:41;89122.03;;;-143.16;72.71
14885;BME280;7534;50.762;7.000;2023-01-29T08:17:06;89152.31;;;-143.16;71.57
14885;BME280;7534;50.762;7.000;2023-01-29T08:19:32;89077.59;;;-143.16;72.03
14885;BME280;7534;50.762;7.000;2023-01-29T08:21:57;89122.03;;;-143.16;72.16
14885;BME280;7534;50.762;7.000;2023-01-29T08:24:23;89122.03;;;-143.16;72.54
14885;BME280;7534;50.762;7.000;2023-01-29T08:26:50;89010.97;;;-143.16;71.82
14885;BME280;7534;50.762;7.000;2023-01-29T08:29:15;89174.53;;;-143.16;71.63
14885;BME280;7534;50.762;7.000;2023-01-29T08:31:41;89083.66;;;-143.16;71.06
14885;BME280;7534;50.762;7.000;2023-01-29T08:34:07;89130.09;;;-143.16;70.21
14885;BME280;7534;50.762;7.000;2023-01-29T08:36:32;89115.97;;;-143.16;70.25
14885;BME280;7534;50.762;7.000;2023-01-29T08:38:59;89150.31;;;-143.16;69.92
14885;BME280;7534;50.762;7.000;2023-01-29T08:41:25;89140.22;;;-143.16;69.98
14885;BME280;7534;50.762;7.000;2023-01-29T08:43:50;89105.88;;;-143.16;70.16
14885;BME280;7534;50.762;7.000;2023-01-29T08:46:16;89095.78;;;-143.16;69.77
14885;BME280;7534;50.762;7.000;2023-01-29T08:48:41;89146.25;;;-143.16;69.51
14885;BME280;7534;50.762;7.000;2023-01-29T08:51:08;89115.97;;;-143.16;68.86
14885;BME280;7534;50.762;7.000;2023-01-29T08:53:34;89166.47;;;-143.16;68.64
14885;BME280;7534;50.762;7.000;2023-01-29T08:55:59;89118.00;;;-143.16;67.73
14885;BME280;7534;50.762;7.000;2023-01-29T08:58:25;89103.84;;;-143.16;66.85
14885;BME280;7534;50.762;7.000;2023-01-29T09:00:50;89093.75;;;-143.16;66.80
14885;BME280;7534;50.762;7.000;2023-01-29T09:03:16;89140.22;;;-143.16;67.14
14885;BME280;7534;50.762;7.000;2023-01-29T09:05:43;89079.63;;;-143.16;66.62
14885;BME280;7534;50.762;7.000;2023-01-29T09:08:09;89069.53;;;-143.16;66.31
14885;BME280;7534;50.762;7.000;2023-01-29T09:10:35;89122.03;;;-143.16;63.29
14885;BME280;7534;50.762;7.000;2023-01-29T09:13:01;89126.06;;;-143.16;62.05
14885;BME280;7534;50.762;7.000;2023-01-29T09:15:27;89065.50;;;-143.16;62.66
14885;BME280;7534;50.762;7.000;2023-01-29T09:17:52;89148.28;;;-143.16;62.95
14885;BME280;7534;50.762;7.000;2023-01-29T09:20:19;89097.81;;;-143.16;62.04
14885;BME280;7534;50.762;7.000;2023-01-29T09:22:46;89118.00;;;-143.16;61.09
14885;BME280;7534;50.762;7.000;2023-01-29T09:25:12;89085.69;;;-143.16;61.51
14885;BME280;7534;50.762;7.000;2023-01-29T09:27:39;89065.50;;;-143.16;60.88
14885;BME280;7534;50.762;7.000;2023-01-29T09:30:05;89158.38;;;-143.16;60.70
14885;BME280;7534;50.762;7.000;2023-01-29T09:32:33;89144.25;;;-143.16;60.82
14885;BME280;7534;50.762;7.000;2023-01-29T09:34:59;89065.50;;;-143.16;59.84
14885;BME280;7534;50.762;7.000;2023-01-29T09:37:24;89025.13;;;-143.16;60.38
14885;BME280;7534;50.762;7.000;2023-01-29T09:39:50;89162.41;;;-143.16;60.02
14885;BME280;7534;50.762;7.000;2023-01-29T09:42:53;89124.06;;;-143.16;59.57
14885;BME280;7534;50.762;7.000;2023-01-29T09:45:23;89113.97;;;-143.16;60.02
14885;BME280;7534;50.762;7.000;2023-01-29T09:47:52;89115.97;;;-143.16;59.75
14885;BME280;7534;50.762;7.000;2023-01-29T09:56:01;89113.97;;;-143.16;59.54
14885;BME280;7534;50.762;7.000;2023-01-29T09:58:34;89101.84;;;-143.16;58.98
14885;BME280;7534;50.762;7.000;2023-01-29T10:07:30;89095.78;;;-143.16;57.69
14885;BME280;7534;50.762;7.000;2023-01-29T10:10:31;89039.25;;;-143.16;57.78
14885;BME280;7534;50.762;7.000;2023-01-29T10:13:26;89156.34;;;-143.16;56.91
14885;BME280;7534;50.762;7.000;2023-01-29T10:19:23;89037.22;;;-143.16;55.37
14885;BME280;7534;50.762;7.000;2023-01-29T10:24:56;88982.72;;;-143.16;54.61
14885;BME280;7534;50.762;7.000;2023-01-29T10:27:32;88970.59;;;-143.16;54.79
14885;BME280;7534;50.762;7.000;2023-01-29T10:30:02;89019.06;;;-143.16;55.36
14885;BME280;7534;50.762;7.000;2023-01-29T10:32:30;88982.72;;;-143.16;55.87
14885;BME280;7534;50.762;7.000;2023-01-29T10:35:12;89017.03;;;-143.16;55.57
14885;BME280;7534;50.762;7.000;2023-01-29T10:37:42;89015.03;;;-143.16;56.14
14885;BME280;7534;50.762;7.000;2023-01-29T10:40:38;89006.94;;;-143.16;54.91
14885;BME280;7534;50.762;7.000;2023-01-29T10:43:36;88946.38;;;-143.16;53.96
14885;BME280;7534;50.762;7.000;2023-01-29T10:49:46;89004.91;;;-143.16;53.79
14885;BME280;7534;50.762;7.000;2023-01-29T10:52:51;89077.59;;;-143.16;54.16
14885;BME280;7534;50.762;7.000;2023-01-29T10:55:37;89006.94;;;-143.16;52.99
14885;BME280;7534;50.762;7.000;2023-01-29T10:58:19;88988.75;;;-143.16;52.71
14885;BME280;7534;50.762;7.000;2023-01-29T11:00:49;88976.66;;;-143.16;52.35
14885;BME280;7534;50.762;7.000;2023-01-29T11:03:29;88988.75;;;-143.16;52.23
14885;BME280;7534;50.762;7.000;2023-01-29T11:12:01;88912.03;;;-143.16;49.52
14885;BME280;7534;50.762;7.000;2023-01-29T11:14:44;88954.44;;;-143.16;50.22
14885;BME280;7534;50.762;7.000;2023-01-29T11:19:45;88976.66;;;-143.16;50.65
14885;BME280;7534;50.762;7.000;2023-01-29T11:22:20;88966.56;;;-143.16;50.63
14885;BME280;7534;50.762;7.000;2023-01-29T11:27:48;88936.28;;;-143.16;49.99
14885;BME280;7534;50.762;7.000;2023-01-29T11:30:28;88914.06;;;-143.16;49.71
14885;BME280;7534;50.762;7.000;2023-01-29T11:33:17;88978.66;;;-143.16;50.72
14885;BME280;7534;50.762;7.000;2023-01-29T11:35:45;88877.72;;;-143.16;51.15
14885;BME280;7534;50.762;7.000;2023-01-29T11:38:29;88944.34;;;-143.16;50.30
14885;BME280;7534;50.762;7.000;2023-01-29T11:41:12;88940.31;;;-143.16;50.03
14885;BME280;7534;50.762;7.000;2023-01-29T11:43:39;88914.06;;;-143.16;50.21
14885;BME280;7534;50.762;7.000;2023-01-29T11:46:12;88974.63;;;-143.16;50.66
14885;BME280;7534;50.762;7.000;2023-01-29T11:48:48;88920.13;;;-143.16;50.61
14885;BME280;7534;50.762;7.000;2023-01-29T11:51:27;88980.69;;;-143.16;50.95
14885;BME280;7534;50.762;7.000;2023-01-29T11:54:01;88956.47;;;-143.16;51.07
14885;BME280;7534;50.762;7.000;2023-01-29T11:56:48;88871.66;;;-143.16;50.12
14885;BME280;7534;50.762;7.000;2023-01-29T11:59:39;88918.09;;;-143.16;49.38
14885;BME280;7534;50.762;7.000;2023-01-29T12:02:21;89013.00;;;-143.16;49.29
14885;BME280;7534;50.762;7.000;2023-01-29T12:04:48;88893.88;;;-143.16;49.08
14885;BME280;7534;50.762;7.000;2023-01-29T12:07:17;88932.22;;;-143.16;49.03
14885;BME280;7534;50.762;7.000;2023-01-29T12:09:56;88934.25;;;-143.16;48.79
14885;BME280;7534;50.762;7.000;2023-01-29T12:12:35;88875.69;;;-143.16;48.97
14885;BME280;7534;50.762;7.000;2023-01-29T12:15:24;88885.78;;;-143.16;48.28
14885;BME280;7534;50.762;7.000;2023-01-29T12:18:28;88821.19;;;-143.16;47.83
14885;BME280;7534;50.762;7.000;2023-01-29T12:21:01;88859.53;;;-143.16;47.45
14885;BME280;7534;50.762;7.000;2023-01-29T12:23:49;88819.16;;;-143.16;46.89
14885;BME280;7534;50.762;7.000;2023-01-29T12:27:18;88843.41;;;-143.16;47.27
14885;BME280;7534;50.762;7.000;2023-01-29T12:29:53;88869.63;;;-143.16;47.06
14885;BME280;7534;50.762;7.000;2023-01-29T12:32:57;88837.34;;;-143.16;46.63
14885;BME280;7534;50.762;7.000;2023-01-29T12:35:32;88843.41;;;-143.16;46.36
14885;BME280;7534;50.762;7.000;2023-01-29T12:38:09;88716.19;;;-143.16;46.06
14885;BME280;7534;50.762;7.000;2023-01-29T12:40:54;88714.19;;;-143.16;45.27
14885;BME280;7534;50.762;7.000;2023-01-29T12:43:36;88726.28;;;-143.16;44.54
14885;BME280;7534;50.762;7.000;2023-01-29T12:46:13;88689.94;;;-143.16;43.37
14885;BME280;7534;50.762;7.000;2023-01-29T12:48:44;88655.63;;;-143.16;42.91
14885;BME280;7534;50.762;7.000;2023-01-29T12:51:17;88698.03;;;-143.16;42.73
14885;BME280;7534;50.762;7.000;2023-01-29T12:54:13;88619.28;;;-143.16;43.04
14885;BME280;7534;50.762;7.000;2023-01-29T12:56:47;88613.22;;;-143.16;43.22
14885;BME280;7534;50.762;7.000;2023-01-29T12:59:38;88718.22;;;-143.16;42.67
14885;BME280;7534;50.762;7.000;2023-01-29T13:02:35;88681.88;;;-143.16;42.64
14885;BME280;7534;50.762;7.000;2023-01-29T13:05:28;88659.66;;;-143.16;42.77
14885;BME280;7534;50.762;7.000;2023-01-29T13:08:13;88633.41;;;-143.16;42.73
14885;BME280;7534;50.762;7.000;2023-01-29T13:10:50;88657.66;;;-143.16;42.39
14885;BME280;7534;50.762;7.000;2023-01-29T13:13:31;88601.13;;;-143.16;42.11
14885;BME280;7534;50.762;7.000;2023-01-29T13:16:06;88601.13;;;-143.16;41.98
14885;BME280;7534;50.762;7.000;2023-01-29T13:21:22;88675.81;;;-143.16;42.28
14885;BME280;7534;50.762;7.000;2023-01-29T13:23:54;88589.00;;;-143.16;42.29
14885;BME280;7534;50.762;7.000;2023-01-29T13:26:22;88580.94;;;-143.16;42.28
14885;BME280;7534;50.762;7.000;2023-01-29T13:28:50;88603.13;;;-143.16;42.25
14885;BME280;7534;50.762;7.000;2023-01-29T13:31:38;88552.66;;;-143.16;42.00
14885;BME280;7534;50.762;7.000;2023-01-29T13:34:16;88508.25;;;-143.16;42.92
14885;BME280;7534;50.762;7.000;2023-01-29T13:36:51;88591.03;;;-143.16;42.88
14885;BME280;7534;50.762;7.000;2023-01-29T13:39:26;88582.94;;;-143.16;42.39
14885;BME280;7534;50.762;7.000;2023-01-29T13:41:55;88568.81;;;-143.16;42.14
14885;BME280;7534;50.762;7.000;2023-01-29T13:44:34;88589.00;;;-143.16;42.07
14885;BME280;7534;50.762;7.000;2023-01-29T13:47:05;88619.28;;;-143.16;42.57
14885;BME280;7534;50.762;7.000;2023-01-29T13:50:01;88661.69;;;-143.16;44.17
14885;BME280;7534;50.762;7.000;2023-01-29T13:52:42;88738.41;;;-143.16;44.43
14885;BME280;7534;50.762;7.000;2023-01-29T13:57:51;88679.84;;;-143.16;44.21
14885;BME280;7534;50.762;7.000;2023-01-29T14:13:46;88694.00;;;-143.16;45.31
14885;BME280;7534;50.762;7.000;2023-01-29T14:18:51;88736.38;;;-143.16;45.89
14885;BME280;7534;50.762;7.000;2023-01-29T14:21:23;88679.84;;;-143.16;45.65
14885;BME280;7534;50.762;7.000;2023-01-29T14:23:56;88694.00;;;-143.16;45.28
14885;BME280;7534;50.762;7.000;2023-01-29T14:26:32;88803.00;;;-143.16;45.28
14885;BME280;7534;50.762;7.000;2023-01-29T14:29:19;88633.41;;;-143.16;46.22
14885;BME280;7534;50.762;7.000;2023-01-29T14:34:40;88762.63;;;-143.16;45.45
14885;BME280;7534;50.762;7.000;2023-01-29T14:39:56;88716.19;;;-143.16;46.16
14885;BME280;7534;50.762;7.000;2023-01-29T14:42:36;88718.22;;;-143.16;46.26
14885;BME280;7534;50.762;7.000;2023-01-29T14:45:22;88853.50;;;-143.16;47.10
14885;BME280;7534;50.762;7.000;2023-01-29T14:47:54;88756.56;;;-143.16;46.98
14885;BME280;7534;50.762;7.000;2023-01-29T14:56:22;88794.94;;;-143.16;48.66